Notice: Undefined variable: arr_rt in /home/veghelsw/public_html/weather28/wsAjaxDataLoad_v3.php on line 490

Notice: Undefined variable: arr_rt in /home/veghelsw/public_html/weather28/wsAjaxDataLoad_v3.php on line 491

Notice: Undefined variable: arr_rt in /home/veghelsw/public_html/weather28/wsAjaxDataLoad_v3.php on line 496

Notice: Undefined variable: arr_rt in /home/veghelsw/public_html/weather28/wsAjaxDataLoad_v3.php on line 497

Notice: Undefined variable: arr_rt in /home/veghelsw/public_html/weather28/wsAjaxDataLoad_v3.php on line 498

Notice: Undefined variable: arr_rt in /home/veghelsw/public_html/weather28/wsAjaxDataLoad_v3.php on line 501

Notice: Undefined variable: arr_rt in /home/veghelsw/public_html/weather28/wsAjaxDataLoad_v3.php on line 505

Notice: Undefined variable: arr_rt in /home/veghelsw/public_html/weather28/wsAjaxDataLoad_v3.php on line 506

Notice: Undefined variable: arr_rt in /home/veghelsw/public_html/weather28/wsAjaxDataLoad_v3.php on line 507

Notice: Undefined variable: arr_rt in /home/veghelsw/public_html/weather28/wsAjaxDataLoad_v3.php on line 508

Notice: Undefined variable: arr_rt in /home/veghelsw/public_html/weather28/wsAjaxDataLoad_v3.php on line 509

Notice: Undefined variable: arr_rt in /home/veghelsw/public_html/weather28/wsAjaxDataLoad_v3.php on line 510

Notice: Undefined variable: arr_rt in /home/veghelsw/public_html/weather28/wsAjaxDataLoad_v3.php on line 512

Notice: Undefined variable: arr_rt in /home/veghelsw/public_html/weather28/wsAjaxDataLoad_v3.php on line 513

Notice: Undefined variable: arr_rt in /home/veghelsw/public_html/weather28/wsAjaxDataLoad_v3.php on line 514

Notice: Undefined variable: arr_rt in /home/veghelsw/public_html/weather28/wsAjaxDataLoad_v3.php on line 515

Notice: Undefined variable: arr_rt in /home/veghelsw/public_html/weather28/wsAjaxDataLoad_v3.php on line 516

Notice: Undefined variable: arr_rt in /home/veghelsw/public_html/weather28/wsAjaxDataLoad_v3.php on line 517

Notice: Undefined variable: arr_rt in /home/veghelsw/public_html/weather28/wsAjaxDataLoad_v3.php on line 518

Notice: Undefined variable: arr_rt in /home/veghelsw/public_html/weather28/wsAjaxDataLoad_v3.php on line 519

Notice: Undefined variable: arr_rt in /home/veghelsw/public_html/weather28/wsAjaxDataLoad_v3.php on line 521
WARNING - Please set your current conddition source. Defaulted to metar

Welkom op de weersite van Veghel e.o.

Voor vele een welkome verandering , het regent weer.

Temperatuur weer onder 25 graden dus;

Einde aan de hittegolf 2018.

Deze begon op 12 juli t/m 8 augustus totaal van 28 dagen.

Het warmst was het op 26 en 27 juli met 36.6 graden.


Webcam Veghel  Webcam Veghel


Onweer radar Meer informatie blitzortung!


Regen radar Meer informatie rain snow radar


U vindt ons ook hier:

Het Weer Aktueel

European Weather Network

Weather Underground

Benelux Weer Netwerk

AWEKAS


Het weer levert geen direct gevaar op.    Er zijn geen waarschuwingen afgegeven.

Weather Underground Historische gegevens

Dagelijkse Samenvatting oktober 17, 2018 Eenheden:  Metrisch    Engels   Beide
« Vorige Dag
Volgende Dag »
Dagelijkse Wekelijkse Maandelijkse Jaarlijkse Aangepaste
  Huidig: Hoog: Laag: Gemiddeld:
Temperatuur: -9.4 °C -17.8 °C -13.3 °C -10.1 °C
Dauwpunt: -10.7 °C -17.8 °C -13.7 °C -11.5 °C
Vochtigheid: 86 % Humidity % 66 % 85 %
Wind snelheid: 10.3 km/h 0 km/h 0 km/h 4.8 km/h
Windvlaag: 15.6 km/h 0 km/h - -
Wind:NNW - - West
Luchtdruk: 34520.3 hPa 0 hPa 34442.4 hPa -
Neerslag: 0 mm      
Historical Graphs
 
 
Tabel voor oktober 17, 2018
Tijd Temperatuur Dauwpunt Luchtdruk Wind Wind snelheid Windvlaag Vochtigheid Regenval per uur
-17.8 °C -17.8 °C 0 hPa Calm     Humidity % 0 mm
00:00 -11.6 °C -12.3 °C 34452.6 hPa SSE 7.7 km/h 7.7 km/h 91 % 0 mm
00:15 -11.5 °C -12.3 °C 34452.6 hPa SSE 7.7 km/h 7.7 km/h 91 % 0 mm
00:20 -11.4 °C -12.2 °C 34442.4 hPa SSE 10.3 km/h 10.3 km/h 91 % 0 mm
00:25 -11.3 °C -12.2 °C 34442.4 hPa SSE 7.7 km/h 7.7 km/h 91 % 0 mm
00:30 -11.3 °C -12.2 °C 34442.4 hPa SSE 7.7 km/h 7.7 km/h 90 % 0 mm
00:35 -11.3 °C -12.3 °C 34442.4 hPa SSE 7.7 km/h 7.7 km/h 89 % 0 mm
00:40 -11.2 °C -12.2 °C 34442.4 hPa SSE 7.7 km/h 10.3 km/h 89 % 0 mm
00:45 -11.2 °C -12.3 °C 34442.4 hPa SSE 7.7 km/h 10.3 km/h 88 % 0 mm
00:50 -11.2 °C -12.2 °C 34442.4 hPa SSE 7.7 km/h 10.3 km/h 89 % 0 mm
00:55 -11.1 °C -12.2 °C 34442.4 hPa SSE 7.7 km/h 7.7 km/h 88 % 0 mm
01:00 -11 °C -12.1 °C 34442.4 hPa SSE 7.7 km/h 10.3 km/h 88 % 0 mm
01:05 -10.9 °C -12.1 °C 34442.4 hPa SSE 7.7 km/h 10.3 km/h 88 % 0 mm
01:10 -10.9 °C -12.1 °C 34442.4 hPa SSE 5.1 km/h 5.1 km/h 87 % 0 mm
01:15 -10.8 °C -12 °C 34442.4 hPa SSE 5.1 km/h 5.1 km/h 87 % 0 mm
01:20 -10.8 °C -12.1 °C 34442.4 hPa SSE 5.1 km/h 5.1 km/h 86 % 0 mm
01:25 -10.8 °C -12.1 °C 34442.4 hPa SSE 5.1 km/h 5.1 km/h 86 % 0 mm
01:35 -10.8 °C -12.1 °C 34442.4 hPa SSE 2.6 km/h 2.6 km/h 86 % 0 mm
01:40 -10.8 °C -12.1 °C 34442.4 hPa Calm   2.6 km/h 86 % 0 mm
01:45 -10.8 °C -12.1 °C 34452.6 hPa Calm     86 % 0 mm
01:50 -10.9 °C -12.1 °C 34452.6 hPa SSE 2.6 km/h 5.1 km/h 86 % 0 mm
01:55 -10.9 °C -12.1 °C 34452.6 hPa SSE 2.6 km/h 7.7 km/h 86 % 0 mm
02:00 -10.9 °C -12.2 °C 34452.6 hPa SSE 5.1 km/h 5.1 km/h 86 % 0 mm
02:05 -10.9 °C -12.2 °C 34452.6 hPa SSE 5.1 km/h 7.7 km/h 86 % 0 mm
02:10 -10.9 °C -12.2 °C 34442.4 hPa SSE 5.1 km/h 5.1 km/h 86 % 0 mm
02:15 -11 °C -12.2 °C 34442.4 hPa SSE 5.1 km/h 5.1 km/h 87 % 0 mm
02:20 -11.1 °C -12.2 °C 34442.4 hPa SSE 5.1 km/h 7.7 km/h 87 % 0 mm
02:25 -11.2 °C -12.3 °C 34442.4 hPa SSE 7.7 km/h 7.7 km/h 87 % 0 mm
02:30 -11.2 °C -12.4 °C 34442.4 hPa SSE 5.1 km/h 7.7 km/h 87 % 0 mm
02:35 -11.3 °C -12.4 °C 34442.4 hPa SSE 5.1 km/h 7.7 km/h 87 % 0 mm
02:40 -11.4 °C -12.4 °C 34442.4 hPa SSE 5.1 km/h 5.1 km/h 88 % 0 mm
02:45 -11.4 °C -12.6 °C 34442.4 hPa SSE 2.6 km/h 5.1 km/h 88 % 0 mm
02:50 -11.5 °C -12.6 °C 34442.4 hPa Calm     88 % 0 mm
02:55 -11.6 °C -12.6 °C 34442.4 hPa Calm     88 % 0 mm
03:00 -11.6 °C -12.6 °C 34442.4 hPa Calm     89 % 0 mm
03:05 -11.6 °C -12.5 °C 34442.4 hPa Calm     90 % 0 mm
03:10 -11.7 °C -12.6 °C 34442.4 hPa Calm     90 % 0 mm
03:15 -11.7 °C -12.6 °C 34442.4 hPa Calm     90 % 0 mm
03:20 -11.8 °C -12.7 °C 34452.6 hPa Calm     90 % 0 mm
03:25 -11.8 °C -12.7 °C 34452.6 hPa Calm     90 % 0 mm
03:30 -11.9 °C -12.7 °C 34452.6 hPa Calm     91 % 0 mm
03:35 -12 °C -12.7 °C 34452.6 hPa Calm     91 % 0 mm
03:40 -12.1 °C -12.8 °C 34452.6 hPa Calm     91 % 0 mm
03:45 -12.1 °C -12.8 °C 34452.6 hPa Calm     91 % 0 mm
03:50 -12.1 °C -12.9 °C 34452.6 hPa Calm     91 % 0 mm
03:55 -12.1 °C -12.8 °C 34452.6 hPa Calm     92 % 0 mm
04:00 -12.1 °C -12.8 °C 34452.6 hPa Calm     92 % 0 mm
04:15 -12.3 °C -12.9 °C 34452.6 hPa Calm     92 % 0 mm
04:25 -12.4 °C -13.1 °C 34452.6 hPa Calm     92 % 0 mm
04:30 -12.4 °C -13.1 °C 34452.6 hPa Calm     92 % 0 mm
04:35 -12.4 °C -13.1 °C 34452.6 hPa Calm     93 % 0 mm
04:40 -12.4 °C -13.1 °C 34452.6 hPa Calm     93 % 0 mm
04:45 -12.5 °C -13.1 °C 34452.6 hPa Calm     93 % 0 mm
04:50 -12.6 °C -13.1 °C 34442.4 hPa Calm     93 % 0 mm
04:55 -12.6 °C -13.1 °C 34442.4 hPa Calm     94 % 0 mm
05:00 -12.5 °C -13 °C 34452.6 hPa Calm     94 % 0 mm
05:05 -12.6 °C -13.1 °C 34452.6 hPa Calm     93 % 0 mm
05:10 -12.6 °C -13.2 °C 34452.6 hPa Calm     93 % 0 mm
05:15 -12.6 °C -13.2 °C 34452.6 hPa Calm     93 % 0 mm
05:20 -12.7 °C -13.3 °C 34452.6 hPa Calm     93 % 0 mm
05:25 -12.7 °C -13.3 °C 34452.6 hPa Calm     93 % 0 mm
05:30 -12.7 °C -13.2 °C 34452.6 hPa Calm     94 % 0 mm
05:35 -12.7 °C -13.2 °C 34452.6 hPa Calm     94 % 0 mm
05:40 -12.7 °C -13.2 °C 34462.7 hPa Calm     94 % 0 mm
05:45 -12.7 °C -13.2 °C 34462.7 hPa Calm     94 % 0 mm
05:50 -12.8 °C -13.3 °C 34452.6 hPa Calm     94 % 0 mm
05:55 -12.7 °C -13.2 °C 34462.7 hPa Calm     95 % 0 mm
06:00 -12.7 °C -13.2 °C 34462.7 hPa Calm     95 % 0 mm
06:05 -12.7 °C -13.2 °C 34462.7 hPa Calm     94 % 0 mm
06:10 -12.7 °C -13.2 °C 34462.7 hPa Calm     94 % 0 mm
06:15 -12.8 °C -13.3 °C 34462.7 hPa Calm     94 % 0 mm
06:20 -12.8 °C -13.3 °C 34462.7 hPa Calm     94 % 0 mm
06:25 -12.8 °C -13.3 °C 34452.6 hPa Calm     94 % 0 mm
06:30 -12.9 °C -13.4 °C 34462.7 hPa Calm     94 % 0 mm
06:35 -12.9 °C -13.3 °C 34462.7 hPa Calm     95 % 0 mm
06:40 -12.9 °C -13.3 °C 34462.7 hPa Calm     95 % 0 mm
06:45 -12.9 °C -13.3 °C 34452.6 hPa Calm     95 % 0 mm
06:50 -12.9 °C -13.4 °C 34452.6 hPa Calm     95 % 0 mm
06:55 -12.9 °C -13.4 °C 34452.6 hPa Calm     95 % 0 mm
07:00 -13 °C -13.5 °C 34452.6 hPa Calm     94 % 0 mm
07:15 -13.1 °C -13.5 °C 34452.6 hPa Calm     95 % 0 mm
07:20 -13 °C -13.4 °C 34452.6 hPa Calm     95 % 0 mm
07:25 -13 °C -13.4 °C 34452.6 hPa Calm     95 % 0 mm
07:30 -13 °C -13.4 °C 34452.6 hPa Calm     95 % 0 mm
07:35 -13.1 °C -13.5 °C 34462.7 hPa Calm     95 % 0 mm
07:40 -13.1 °C -13.5 °C 34462.7 hPa Calm     95 % 0 mm
07:45 -13.1 °C -13.5 °C 34462.7 hPa Calm     95 % 0 mm
07:50 -13.1 °C -13.5 °C 34462.7 hPa Calm     95 % 0 mm
07:55 -13.1 °C -13.6 °C 34462.7 hPa Calm     95 % 0 mm
08:00 -13.2 °C -13.6 °C 34462.7 hPa Calm     95 % 0 mm
08:05 -13.2 °C -13.6 °C 34476.3 hPa Calm     95 % 0 mm
08:10 -13.2 °C -13.7 °C 34476.3 hPa Calm     95 % 0 mm
08:15 -13.3 °C -13.7 °C 34476.3 hPa Calm     95 % 0 mm
08:20 -13.3 °C -13.7 °C 34476.3 hPa SSW 2.6 km/h 12.9 km/h 95 % 0 mm
08:25 -13.2 °C -13.5 °C 34476.3 hPa SSW 5.1 km/h 12.9 km/h 96 % 0 mm
08:30 -12.9 °C -13.1 °C 34476.3 hPa SSW 7.7 km/h 7.7 km/h 97 % 0 mm
08:40 -12.6 °C -12.8 °C 34486.4 hPa SSW 5.1 km/h 5.1 km/h 97 % 0 mm
08:45 -12.6 °C -12.9 °C 34486.4 hPa SSW 5.1 km/h 5.1 km/h 96 % 0 mm
08:50 -12.6 °C -12.8 °C 34486.4 hPa SSW 2.6 km/h 5.1 km/h 97 % 0 mm
08:55 -12.4 °C -12.7 °C 34486.4 hPa SSW 2.6 km/h 5.1 km/h 97 % 0 mm
09:00 -12.3 °C -12.6 °C 34486.4 hPa Calm     97 % 0 mm
09:05 -12.2 °C -12.4 °C 34486.4 hPa Calm     97 % 0 mm
09:10 -12.2 °C -12.4 °C 34486.4 hPa Calm     97 % 0 mm
09:15 -12.2 °C -12.4 °C 34486.4 hPa Calm     97 % 0 mm
09:20 -12.2 °C -12.6 °C 34486.4 hPa SSW 2.6 km/h 2.6 km/h 96 % 0 mm
09:25 -12.1 °C -12.4 °C 34486.4 hPa SSW 2.6 km/h 2.6 km/h 97 % 0 mm
09:30 -12.1 °C -12.3 °C 34486.4 hPa SSW 2.6 km/h 5.1 km/h 97 % 0 mm
09:35 -11.8 °C -12.1 °C 34486.4 hPa SSW 2.6 km/h 10.3 km/h 97 % 0 mm
09:40 -11.3 °C -11.6 °C 34486.4 hPa SSW 5.1 km/h 7.7 km/h 97 % 0 mm
09:45 -11 °C -11.2 °C 34486.4 hPa SSW 7.7 km/h 12.9 km/h 98 % 0 mm
09:50 -10.8 °C -11 °C 34486.4 hPa SSW 7.7 km/h 10.3 km/h 98 % 0 mm
09:55 -10.7 °C -10.9 °C 34486.4 hPa SSW 7.7 km/h 10.3 km/h 98 % 0 mm
10:00 -10.6 °C -10.8 °C 34486.4 hPa SSW 5.1 km/h 7.7 km/h 98 % 0 mm
10:15 -10.3 °C -10.7 °C 34496.6 hPa SSW 5.1 km/h 5.1 km/h 96 % 0 mm
10:20 -10.2 °C -10.6 °C 34496.6 hPa SSW 5.1 km/h 5.1 km/h 96 % 0 mm
10:25 -10.1 °C -10.4 °C 34496.6 hPa SSW 2.6 km/h 5.1 km/h 96 % 0 mm
10:30 -9.9 °C -10.4 °C 34496.6 hPa SSW 2.6 km/h 10.3 km/h 95 % 0 mm
10:35 -9.8 °C -10.3 °C 34496.6 hPa SSW 7.7 km/h 10.3 km/h 95 % 0 mm
10:40 -9.8 °C -10.3 °C 34496.6 hPa SSW 7.7 km/h 10.3 km/h 94 % 0 mm
10:45 -9.6 °C -10.2 °C 34496.6 hPa SSW 7.7 km/h 7.7 km/h 93 % 0 mm
10:50 -9.6 °C -10.3 °C 34496.6 hPa SSW 7.7 km/h 10.3 km/h 92 % 0 mm
10:55 -9.5 °C -10.2 °C 34496.6 hPa SSW 7.7 km/h 10.3 km/h 92 % 0 mm
11:00 -9.4 °C -10.2 °C 34496.6 hPa SSW 7.7 km/h 7.7 km/h 91 % 0 mm
11:10 -9.1 °C -10 °C 34496.6 hPa SSW 7.7 km/h 7.7 km/h 90 % 0 mm
11:15 -9 °C -10 °C 34496.6 hPa WSW 7.7 km/h 10.3 km/h 89 % 0 mm
11:20 -8.8 °C -9.9 °C 34496.6 hPa WSW 7.7 km/h 12.9 km/h 89 % 0 mm
11:25 -8.8 °C -9.9 °C 34496.6 hPa WSW 7.7 km/h 12.9 km/h 88 % 0 mm
11:30 -8.7 °C -9.8 °C 34496.6 hPa West 7.7 km/h 7.7 km/h 88 % 0 mm
11:35 -8.6 °C -9.7 °C 34510.1 hPa West 7.7 km/h 10.3 km/h 88 % 0 mm
11:40 -8.5 °C -9.7 °C 34510.1 hPa West 5.1 km/h 7.7 km/h 87 % 0 mm
11:45 -8.4 °C -9.8 °C 34510.1 hPa WNW 7.7 km/h 12.9 km/h 86 % 0 mm
11:50 -8.4 °C -9.7 °C 34510.1 hPa WNW 10.3 km/h 10.3 km/h 86 % 0 mm
11:55 -8.4 °C -9.8 °C 34496.6 hPa WNW 10.3 km/h 10.3 km/h 85 % 0 mm
12:00 -8.3 °C -9.8 °C 34510.1 hPa WNW 10.3 km/h 10.3 km/h 85 % 0 mm
12:05 -8.2 °C -9.8 °C 34510.1 hPa WNW 10.3 km/h 12.9 km/h 84 % 0 mm
12:10 -8.2 °C -9.7 °C 34510.1 hPa NW 7.7 km/h 10.3 km/h 84 % 0 mm
12:15 -8.1 °C -9.7 °C 34496.6 hPa NW 7.7 km/h 10.3 km/h 83 % 0 mm
12:20 -8 °C -9.8 °C 34496.6 hPa NW 5.1 km/h 7.7 km/h 81 % 0 mm
12:25 -7.9 °C -9.7 °C 34496.6 hPa NW 7.7 km/h 7.7 km/h 82 % 0 mm
12:30 -7.9 °C -9.8 °C 34496.6 hPa NW 7.7 km/h 7.7 km/h 81 % 0 mm
12:35 -7.9 °C -9.7 °C 34496.6 hPa NW 7.7 km/h 10.3 km/h 81 % 0 mm
12:40 -7.9 °C -9.7 °C 34496.6 hPa NW 7.7 km/h 12.9 km/h 81 % 0 mm
12:45 -7.9 °C -9.8 °C 34496.6 hPa NW 7.7 km/h 12.9 km/h 80 % 0 mm
12:50 -7.8 °C -9.7 °C 34496.6 hPa NW 7.7 km/h 7.7 km/h 81 % 0 mm
12:55 -7.8 °C -9.9 °C 34496.6 hPa NW 7.7 km/h 7.7 km/h 79 % 0 mm
13:00 -7.8 °C -9.8 °C 34496.6 hPa NW 7.7 km/h 7.7 km/h 79 % 0 mm
13:15 -7.6 °C -9.8 °C 34496.6 hPa NW 10.3 km/h 10.3 km/h 78 % 0 mm
13:20 -7.6 °C -9.6 °C 34496.6 hPa NW 7.7 km/h 12.9 km/h 79 % 0 mm
13:25 -7.5 °C -9.8 °C 34496.6 hPa NW 7.7 km/h 7.7 km/h 77 % 0 mm
13:30 -7.5 °C -9.7 °C 34496.6 hPa North 10.3 km/h 12.9 km/h 78 % 0 mm
13:35 -7.6 °C -9.7 °C 34496.6 hPa North 10.3 km/h 10.3 km/h 78 % 0 mm
13:40 -7.6 °C -9.9 °C 34496.6 hPa North 10.3 km/h 10.3 km/h 77 % 0 mm
13:45 -7.6 °C -9.7 °C 34486.4 hPa North 10.3 km/h 10.3 km/h 78 % 0 mm
13:50 -7.5 °C -9.6 °C 34486.4 hPa North 10.3 km/h 10.3 km/h 79 % 0 mm
14:00 -7.4 °C -9.7 °C 34486.4 hPa North 7.7 km/h 7.7 km/h 77 % 0 mm
14:05 -7.3 °C -9.8 °C 34486.4 hPa North 5.1 km/h 10.3 km/h 75 % 0 mm
14:10 -7.3 °C -9.8 °C 34486.4 hPa North 7.7 km/h 7.7 km/h 75 % 0 mm
14:20 -7.2 °C -9.8 °C 34486.4 hPa NNW 7.7 km/h 12.9 km/h 74 % 0 mm
14:25 -7.2 °C -9.8 °C 34476.3 hPa NNW 7.7 km/h 12.9 km/h 74 % 0 mm
14:30 -7.2 °C -9.9 °C 34486.4 hPa NNW 7.7 km/h 7.7 km/h 73 % 0 mm
14:35 -7.2 °C -9.9 °C 34486.4 hPa NNW 7.7 km/h 10.3 km/h 73 % 0 mm
14:40 -7.1 °C -9.8 °C 34486.4 hPa NNW 7.7 km/h 7.7 km/h 73 % 0 mm
14:45 -7.1 °C -9.8 °C 34486.4 hPa NNW 7.7 km/h 7.7 km/h 73 % 0 mm
14:50 -6.9 °C -9.7 °C 34486.4 hPa NNW 5.1 km/h 5.1 km/h 73 % 0 mm
14:55 -6.9 °C -9.8 °C 34486.4 hPa NNW 7.7 km/h 12.9 km/h 72 % 0 mm
15:00 -6.9 °C -9.9 °C 34486.4 hPa NNW 7.7 km/h 7.7 km/h 71 % 0 mm
15:05 -6.8 °C -9.8 °C 34486.4 hPa NNW 7.7 km/h 7.7 km/h 71 % 0 mm
15:10 -6.8 °C -9.9 °C 34486.4 hPa NNW 7.7 km/h 7.7 km/h 70 % 0 mm
15:15 -6.8 °C -9.9 °C 34486.4 hPa NNW 7.7 km/h 7.7 km/h 70 % 0 mm
15:20 -6.7 °C -9.7 °C 34486.4 hPa NNW 7.7 km/h 7.7 km/h 71 % 0 mm
15:25 -6.7 °C -9.9 °C 34486.4 hPa NNW 5.1 km/h 7.7 km/h 69 % 0 mm
15:30 -6.6 °C -9.9 °C 34486.4 hPa NW 5.1 km/h 15.6 km/h 69 % 0 mm
15:35 -6.7 °C -10.1 °C 34486.4 hPa NW 7.7 km/h 15.6 km/h 68 % 0 mm
15:40 -6.7 °C -10.1 °C 34486.4 hPa NW 10.3 km/h 10.3 km/h 68 % 0 mm
15:45 -6.6 °C -10.1 °C 34476.3 hPa NW 7.7 km/h 10.3 km/h 68 % 0 mm
15:50 -6.6 °C -9.9 °C 34476.3 hPa NW 5.1 km/h 10.3 km/h 68 % 0 mm
15:55 -6.6 °C -9.9 °C 34476.3 hPa NW 5.1 km/h 10.3 km/h 68 % 0 mm
16:00 -6.6 °C -10.2 °C 34486.4 hPa NW 5.1 km/h 12.9 km/h 66 % 0 mm
16:15 -6.7 °C -10.3 °C 34486.4 hPa WNW 12.9 km/h 12.9 km/h 66 % 0 mm
16:20 -6.8 °C -10.4 °C 34486.4 hPa West 15.6 km/h 15.6 km/h 66 % 0 mm
16:25 -6.8 °C -10.3 °C 34486.4 hPa West 15.6 km/h 15.6 km/h 67 % 0 mm
16:30 -6.9 °C -10.4 °C 34486.4 hPa WNW 15.6 km/h 15.6 km/h 67 % 0 mm
16:35 -6.8 °C -10.3 °C 34486.4 hPa West 12.9 km/h 15.6 km/h 67 % 0 mm
16:40 -6.9 °C -10.4 °C 34486.4 hPa West 12.9 km/h 15.6 km/h 67 % 0 mm
16:45 -6.9 °C -10.3 °C 34486.4 hPa WNW 15.6 km/h 18.2 km/h 68 % 0 mm
16:50 -6.9 °C -10.3 °C 34486.4 hPa NW 15.6 km/h 18.2 km/h 68 % 0 mm
16:55 -7 °C -10.3 °C 34486.4 hPa NW 12.9 km/h 18.2 km/h 68 % 0 mm
17:00 -7.1 °C -10.3 °C 34486.4 hPa NW 12.9 km/h 12.9 km/h 69 % 0 mm
17:05 -7.1 °C -10.3 °C 34486.4 hPa NW 12.9 km/h 12.9 km/h 69 % 0 mm
17:10 -7 °C -10.2 °C 34496.6 hPa NW 10.3 km/h 12.9 km/h 69 % 0 mm
17:15 -7.1 °C -10.2 °C 34486.4 hPa NW 10.3 km/h 15.6 km/h 70 % 0 mm
17:20 -7.2 °C -10.3 °C 34486.4 hPa NW 10.3 km/h 10.3 km/h 70 % 0 mm
17:25 -7.2 °C -10.3 °C 34496.6 hPa NW 10.3 km/h 10.3 km/h 70 % 0 mm
17:30 -7.3 °C -10.4 °C 34486.4 hPa NW 10.3 km/h 10.3 km/h 70 % 0 mm
17:35 -7.3 °C -10.4 °C 34486.4 hPa NW 7.7 km/h 10.3 km/h 70 % 0 mm
17:40 -7.3 °C -10.4 °C 34496.6 hPa NW 7.7 km/h 7.7 km/h 70 % 0 mm
17:45 -7.4 °C -10.5 °C 34496.6 hPa NW 10.3 km/h 10.3 km/h 70 % 0 mm
17:50 -7.4 °C -10.6 °C 34496.6 hPa NW 7.7 km/h 7.7 km/h 70 % 0 mm
17:55 -7.6 °C -10.6 °C 34496.6 hPa NW 7.7 km/h 7.7 km/h 70 % 0 mm
18:00 -7.6 °C -10.7 °C 34496.6 hPa NW 7.7 km/h 7.7 km/h 70 % 0 mm
18:05 -7.7 °C -10.7 °C 34496.6 hPa NW 5.1 km/h 7.7 km/h 71 % 0 mm
18:10 -7.7 °C -10.7 °C 34496.6 hPa NW 5.1 km/h 5.1 km/h 71 % 0 mm
18:15 -7.8 °C -10.7 °C 34496.6 hPa NW 5.1 km/h 5.1 km/h 72 % 0 mm
18:20 -7.9 °C -10.6 °C 34496.6 hPa NW 5.1 km/h 5.1 km/h 73 % 0 mm
18:25 -8 °C -10.7 °C 34496.6 hPa NW 5.1 km/h 5.1 km/h 73 % 0 mm
18:30 -8.1 °C -10.7 °C 34496.6 hPa NW 2.6 km/h 2.6 km/h 74 % 0 mm
18:35 -8.2 °C -10.8 °C 34496.6 hPa NW 5.1 km/h 5.1 km/h 74 % 0 mm
18:40 -8.3 °C -10.8 °C 34496.6 hPa NW 5.1 km/h 5.1 km/h 75 % 0 mm
18:45 -8.4 °C -10.8 °C 34496.6 hPa NW 2.6 km/h 5.1 km/h 76 % 0 mm
18:50 -8.6 °C -10.8 °C 34510.1 hPa NW 5.1 km/h 5.1 km/h 77 % 0 mm
18:55 -8.7 °C -10.8 °C 34496.6 hPa NW 2.6 km/h 5.1 km/h 78 % 0 mm
19:00 -8.8 °C -10.7 °C 34510.1 hPa NW 2.6 km/h 5.1 km/h 80 % 0 mm
19:15 -9.2 °C -10.9 °C 34510.1 hPa Calm     81 % 0 mm
19:20 -9.3 °C -11 °C 34510.1 hPa Calm     82 % 0 mm
19:25 -9.5 °C -11.1 °C 34510.1 hPa Calm     83 % 0 mm
19:30 -9.6 °C -11.2 °C 34520.3 hPa Calm   7.7 km/h 83 % 0 mm
19:35 -9.7 °C -11.1 °C 34520.3 hPa NW 2.6 km/h 5.1 km/h 85 % 0 mm
19:40 -9.6 °C -10.9 °C 34520.3 hPa NNW 7.7 km/h 10.3 km/h 86 % 0 mm
19:45 -9.4 °C -10.7 °C 34520.3 hPa NNW 10.3 km/h 15.6 km/h 86 % 0 mm
Veghelsweer
Gegevens verzameld door Weather Underground - 2.75 mb

Script ontwikkeld door  Jim McMurry - jmcmurry@mwt.net Aangepast voor de template door  Wim van der Kuil - Leuven-Template.eu

Apparatuur in gebruik:

Weerstation
Davis VP2

Weerprogramma
WeatherLink

Weercomputer
Sponsor

Webleverancier
My provider

Davis VP2

WeatherLink

Sponsor

My provider